createdAt,value
2019-03-05T00:01:09.768Z,9.10
2019-03-05T00:03:39.286Z,8.90
2019-03-05T00:06:06.808Z,8.60
2019-03-05T00:08:34.464Z,8.60
2019-03-05T00:11:02.140Z,8.50
2019-03-05T00:13:29.672Z,8.50
2019-03-05T00:15:57.180Z,8.40
2019-03-05T00:18:26.468Z,8.50
2019-03-05T00:20:54.118Z,8.50
2019-03-05T00:24:05.794Z,8.60
2019-03-05T00:26:34.752Z,8.70
2019-03-05T00:29:41.437Z,8.60
2019-03-05T00:32:08.984Z,8.50
2019-03-05T00:35:17.621Z,8.30
2019-03-05T00:37:57.650Z,8.30
2019-03-05T00:40:36.892Z,8.20
2019-03-05T00:43:10.774Z,8.20
2019-03-05T00:46:06.686Z,8.10
2019-03-05T00:49:00.424Z,8.10
2019-03-05T00:52:31.380Z,8.20
2019-03-05T00:55:13.686Z,8.40
2019-03-05T00:58:05.430Z,8.30
2019-03-05T01:01:05.591Z,8.30
2019-03-05T01:04:07.890Z,8.40
2019-03-05T01:06:35.777Z,8.40
2019-03-05T01:09:10.636Z,8.40
2019-03-05T01:11:40.098Z,8.30
2019-03-05T01:14:07.853Z,8.20
2019-03-05T01:16:35.753Z,8.00
2019-03-05T01:19:03.196Z,7.90
2019-03-05T01:21:30.850Z,7.80
2019-03-05T01:23:59.475Z,7.70
2019-03-05T01:26:26.973Z,7.80
2019-03-05T01:28:55.764Z,7.80
2019-03-05T01:31:51.938Z,7.70
2019-03-05T01:34:39.215Z,7.70
2019-03-05T01:37:07.162Z,7.70
2019-03-05T01:39:56.217Z,7.70
2019-03-05T01:42:23.843Z,7.70
2019-03-05T01:44:51.599Z,7.80
2019-03-05T01:47:19.305Z,7.80
2019-03-05T01:49:46.681Z,7.80
2019-03-05T01:52:14.226Z,7.70
2019-03-05T01:54:42.683Z,7.70
2019-03-05T01:57:10.155Z,7.80
2019-03-05T01:59:37.559Z,7.90
2019-03-05T02:02:05.229Z,8.10
2019-03-05T02:04:32.562Z,8.00
2019-03-05T02:06:59.841Z,8.00
2019-03-05T02:09:27.390Z,8.00
2019-03-05T02:11:54.782Z,8.00
2019-03-05T02:14:22.161Z,8.10
2019-03-05T02:16:49.608Z,8.00
2019-03-05T02:19:51.893Z,8.10
2019-03-05T02:22:30.415Z,8.20
2019-03-05T02:25:04.402Z,8.30
2019-03-05T02:27:55.340Z,8.40
2019-03-05T02:30:36.851Z,8.40
2019-03-05T02:33:24.788Z,8.40
2019-03-05T02:36:04.272Z,8.50
2019-03-05T02:38:58.204Z,8.50
2019-03-05T02:42:05.896Z,8.50
2019-03-05T02:44:55.888Z,8.60
2019-03-05T02:48:01.309Z,8.70
2019-03-05T02:51:18.829Z,8.80
2019-03-05T02:54:23.445Z,8.90
2019-03-05T02:57:10.272Z,8.80
2019-03-05T02:59:37.991Z,8.70
2019-03-05T03:02:32.605Z,8.70
2019-03-05T03:05:17.527Z,8.60
2019-03-05T03:07:44.974Z,8.60
2019-03-05T03:10:22.915Z,8.60
2019-03-05T03:12:50.829Z,8.60
2019-03-05T03:15:18.794Z,8.60
2019-03-05T03:17:47.518Z,8.60
2019-03-05T03:20:16.567Z,8.70
2019-03-05T03:22:43.934Z,8.70
2019-03-05T03:25:14.886Z,8.70
2019-03-05T03:27:42.317Z,8.60
2019-03-05T03:30:11.714Z,8.70
2019-03-05T03:32:39.165Z,8.70
2019-03-05T03:35:07.965Z,8.80
2019-03-05T03:37:35.440Z,8.80
2019-03-05T03:40:06.232Z,8.80
2019-03-05T03:42:33.792Z,8.90
2019-03-05T03:45:02.323Z,9.10
2019-03-05T03:47:29.873Z,8.80
2019-03-05T03:49:57.341Z,8.70
2019-03-05T03:52:25.887Z,8.60
2019-03-05T03:54:53.325Z,8.70
2019-03-05T03:57:20.788Z,8.70
2019-03-05T03:59:48.196Z,8.80
2019-03-05T04:02:15.632Z,8.90
2019-03-05T04:04:43.232Z,9.00
2019-03-05T04:07:10.621Z,9.20
2019-03-05T04:09:38.137Z,9.00
2019-03-05T04:12:05.543Z,9.00
2019-03-05T04:14:34.695Z,8.90
2019-03-05T04:17:02.234Z,8.90
2019-03-05T04:19:32.722Z,8.90
2019-03-05T04:22:00.252Z,8.80
2019-03-05T04:24:28.889Z,9.00
2019-03-05T04:26:58.320Z,8.90
2019-03-05T04:29:25.779Z,8.90
2019-03-05T04:31:53.258Z,8.80
2019-03-05T04:34:20.858Z,8.70
2019-03-05T04:36:48.233Z,8.80
2019-03-05T04:39:15.745Z,8.80
2019-03-05T04:41:43.505Z,8.70
2019-03-05T04:44:11.225Z,8.80
2019-03-05T04:46:46.593Z,8.90
2019-03-05T04:49:22.250Z,8.90
2019-03-05T04:52:02.085Z,8.90
2019-03-05T04:54:29.607Z,8.80
2019-03-05T04:56:57.060Z,8.60
2019-03-05T04:59:24.391Z,8.30
2019-03-05T05:01:51.755Z,8.00
2019-03-05T05:04:19.211Z,7.80
2019-03-05T05:06:46.893Z,7.70
2019-03-05T05:09:14.244Z,7.70
2019-03-05T05:11:41.569Z,7.70
2019-03-05T05:14:09.017Z,7.80
2019-03-05T05:16:36.471Z,7.80
2019-03-05T05:19:03.892Z,7.90
2019-03-05T05:21:31.224Z,7.90
2019-03-05T05:23:58.557Z,7.80
2019-03-05T05:26:25.863Z,7.70
2019-03-05T05:28:53.150Z,7.50
2019-03-05T05:31:24.227Z,7.40
2019-03-05T05:33:53.474Z,7.40
2019-03-05T05:36:25.621Z,7.30
2019-03-05T05:38:53.071Z,7.40
2019-03-05T05:41:20.503Z,7.40
2019-03-05T05:43:47.870Z,7.20
2019-03-05T05:46:15.216Z,7.20
2019-03-05T05:48:42.591Z,7.10
2019-03-05T05:51:09.950Z,7.10
2019-03-05T05:53:50.316Z,7.10
2019-03-05T05:56:17.815Z,7.20
2019-03-05T05:58:45.251Z,7.30
2019-03-05T06:01:12.774Z,7.20
2019-03-05T06:03:40.049Z,7.10
2019-03-05T06:06:07.413Z,7.20
2019-03-05T06:08:34.840Z,7.20
2019-03-05T06:11:02.270Z,7.30
2019-03-05T06:13:49.122Z,7.30
2019-03-05T06:16:16.525Z,7.40
2019-03-05T06:18:44.948Z,7.50
2019-03-05T06:21:12.418Z,7.50
2019-03-05T06:23:39.898Z,7.50
2019-03-05T06:26:08.706Z,7.50
2019-03-05T06:28:36.394Z,7.50
2019-03-05T06:31:03.908Z,7.50
2019-03-05T06:33:31.329Z,7.50
2019-03-05T06:35:58.747Z,7.40
2019-03-05T06:38:26.238Z,7.50
2019-03-05T06:40:53.572Z,7.50
2019-03-05T06:43:22.306Z,7.40
2019-03-05T06:45:49.700Z,7.50
2019-03-05T06:48:17.035Z,7.60
2019-03-05T06:50:44.347Z,7.50
2019-03-05T06:53:11.764Z,7.60
2019-03-05T06:55:39.356Z,7.70
2019-03-05T06:58:06.774Z,7.80
2019-03-05T07:00:36.302Z,7.80
2019-03-05T07:03:04.085Z,7.80
2019-03-05T07:06:08.382Z,7.70
2019-03-05T07:08:38.150Z,7.60
2019-03-05T07:11:29.708Z,7.70
2019-03-05T07:13:58.665Z,7.70
2019-03-05T07:16:38.946Z,7.70
2019-03-05T07:19:34.263Z,7.60
2019-03-05T07:22:51.565Z,7.60
2019-03-05T07:25:18.924Z,7.70
2019-03-05T07:27:50.162Z,7.80
2019-03-05T07:30:23.263Z,7.80
2019-03-05T07:32:50.979Z,7.80
2019-03-05T07:35:22.803Z,7.90
2019-03-05T07:37:51.247Z,8.00
2019-03-05T07:40:18.534Z,8.10
2019-03-05T07:42:45.875Z,8.10
2019-03-05T07:45:14.351Z,8.20
2019-03-05T07:47:41.687Z,8.30
2019-03-05T07:50:09.915Z,8.30
2019-03-05T07:52:37.456Z,8.20
2019-03-05T07:55:13.603Z,8.30
2019-03-05T07:57:36.606Z,8.30
2019-03-05T08:00:05.801Z,8.20
2019-03-05T08:02:33.510Z,8.10
2019-03-05T08:05:00.879Z,8.00
2019-03-05T08:07:47.689Z,7.80
2019-03-05T08:10:29.540Z,7.80
2019-03-05T08:13:25.057Z,7.80
2019-03-05T08:16:21.703Z,7.90
2019-03-05T08:18:49.115Z,8.00
2019-03-05T08:21:16.619Z,8.10
2019-03-05T08:23:44.025Z,8.20
2019-03-05T08:26:11.589Z,8.30
2019-03-05T08:28:38.981Z,8.30
2019-03-05T08:31:06.619Z,8.30
2019-03-05T08:33:34.035Z,8.20
2019-03-05T08:36:01.941Z,8.20
2019-03-05T08:38:32.267Z,8.10
2019-03-05T08:40:59.627Z,8.10
2019-03-05T08:43:46.607Z,8.20
2019-03-05T08:46:13.982Z,8.10
2019-03-05T08:48:54.243Z,8.10
2019-03-05T08:51:21.819Z,8.30
2019-03-05T08:53:49.934Z,8.40
2019-03-05T08:56:17.745Z,8.60
2019-03-05T08:58:46.701Z,8.60
2019-03-05T09:01:33.541Z,8.60
2019-03-05T09:04:01.083Z,8.60
2019-03-05T09:06:28.499Z,8.60
2019-03-05T09:08:55.953Z,8.60
2019-03-05T09:11:23.927Z,8.70
2019-03-05T09:13:51.314Z,8.70
2019-03-05T09:16:18.657Z,8.50
2019-03-05T09:18:46.057Z,8.30
2019-03-05T09:21:13.370Z,8.40
2019-03-05T09:23:40.803Z,8.40
2019-03-05T09:26:08.388Z,8.30
2019-03-05T09:28:36.008Z,8.30
2019-03-05T09:31:03.617Z,8.20
2019-03-05T09:33:31.419Z,8.30
2019-03-05T09:35:58.818Z,8.50
2019-03-05T09:38:26.293Z,8.50
2019-03-05T09:40:53.690Z,8.70
2019-03-05T09:43:21.148Z,8.70
2019-03-05T09:45:48.835Z,8.70
2019-03-05T09:48:16.166Z,8.70
2019-03-05T09:50:43.589Z,8.60
2019-03-05T09:53:12.335Z,8.50
2019-03-05T09:55:39.709Z,8.60
2019-03-05T09:58:08.678Z,8.70
2019-03-05T10:00:36.497Z,8.80
2019-03-05T10:03:04.807Z,8.80
2019-03-05T10:05:32.345Z,8.70
2019-03-05T10:07:59.864Z,8.50
2019-03-05T10:10:27.404Z,8.30
2019-03-05T10:12:59.097Z,8.30
2019-03-05T10:15:24.887Z,8.30
2019-03-05T10:17:53.506Z,8.40
2019-03-05T10:20:21.219Z,8.30
2019-03-05T10:22:49.086Z,8.30
2019-03-05T10:25:18.326Z,8.40
2019-03-05T10:27:47.237Z,8.50
2019-03-05T10:30:24.799Z,8.70
2019-03-05T10:32:48.024Z,8.80
2019-03-05T10:35:15.522Z,8.90
2019-03-05T10:37:46.072Z,9.00
2019-03-05T10:40:14.482Z,9.10
2019-03-05T10:42:41.940Z,9.20
2019-03-05T10:45:13.773Z,9.20
2019-03-05T10:47:41.212Z,9.20
2019-03-05T10:50:15.295Z,9.20
2019-03-05T10:52:41.524Z,9.20
2019-03-05T10:55:09.260Z,9.30
2019-03-05T10:57:36.720Z,9.40
2019-03-05T11:00:06.648Z,9.40
2019-03-05T11:02:35.407Z,9.50
2019-03-05T11:05:03.846Z,9.60
2019-03-05T11:07:31.306Z,9.50
2019-03-05T11:09:58.798Z,9.70
2019-03-05T11:12:26.233Z,9.90
2019-03-05T11:14:53.694Z,10.00
2019-03-05T11:17:21.113Z,9.90
2019-03-05T11:19:48.577Z,9.90
2019-03-05T11:22:15.975Z,9.60
2019-03-05T11:24:43.530Z,9.10
2019-03-05T11:27:10.828Z,8.80
2019-03-05T11:29:38.331Z,8.70
2019-03-05T11:32:05.782Z,8.80
2019-03-05T11:34:33.190Z,9.00
2019-03-05T11:37:00.592Z,9.10
2019-03-05T11:39:28.103Z,9.30
2019-03-05T11:41:55.441Z,9.50
2019-03-05T11:44:22.891Z,9.80
2019-03-05T11:46:50.163Z,10.10
2019-03-05T11:49:17.838Z,10.30
2019-03-05T11:51:45.379Z,10.30
2019-03-05T11:54:12.837Z,10.40
2019-03-05T11:56:40.347Z,10.50
2019-03-05T11:59:07.765Z,10.40
2019-03-05T12:01:46.868Z,10.40
2019-03-05T12:04:14.462Z,10.50
2019-03-05T12:06:41.913Z,10.50
2019-03-05T12:09:09.478Z,10.50
2019-03-05T12:11:37.238Z,10.60
2019-03-05T12:14:04.621Z,10.60
2019-03-05T12:16:32.345Z,10.70
2019-03-05T12:18:59.831Z,10.60
2019-03-05T12:21:27.211Z,10.70
2019-03-05T12:23:54.609Z,10.70
2019-03-05T12:26:21.968Z,10.90
2019-03-05T12:28:49.452Z,11.00
2019-03-05T12:31:16.942Z,11.10
2019-03-05T12:33:44.401Z,11.10
2019-03-05T12:36:11.726Z,11.20
2019-03-05T12:38:39.065Z,11.20
2019-03-05T12:41:07.644Z,11.30
2019-03-05T12:43:35.025Z,11.40
2019-03-05T12:46:02.530Z,11.20
2019-03-05T12:48:39.536Z,11.20
2019-03-05T12:50:59.334Z,11.00
2019-03-05T12:53:26.795Z,11.00
2019-03-05T12:55:54.280Z,10.90
2019-03-05T12:58:22.212Z,10.70
2019-03-05T13:00:49.698Z,10.80
2019-03-05T13:03:17.242Z,10.80
2019-03-05T13:05:44.575Z,10.70
2019-03-05T13:08:13.971Z,10.70
2019-03-05T13:10:41.479Z,10.50
2019-03-05T13:13:10.354Z,10.40
2019-03-05T13:15:38.590Z,10.40
2019-03-05T13:18:05.916Z,10.30
2019-03-05T13:20:33.366Z,10.40
2019-03-05T13:23:00.863Z,10.30
2019-03-05T13:25:29.713Z,10.40
2019-03-05T13:27:57.724Z,10.40
2019-03-05T13:30:27.037Z,10.50
2019-03-05T13:32:58.958Z,10.50
2019-03-05T13:35:30.112Z,10.50
2019-03-05T13:37:54.883Z,10.40
2019-03-05T13:40:24.100Z,10.40
2019-03-05T13:42:51.622Z,10.50
2019-03-05T13:45:19.644Z,10.60
2019-03-05T13:47:59.997Z,10.70
2019-03-05T13:51:23.174Z,10.80
2019-03-05T13:54:48.585Z,10.70
2019-03-05T13:57:38.356Z,10.60
2019-03-05T14:00:07.496Z,10.50
2019-03-05T14:02:58.400Z,10.40
2019-03-05T14:05:54.171Z,10.40
2019-03-05T14:09:24.268Z,10.40
2019-03-05T14:11:52.288Z,10.30
2019-03-05T14:14:24.699Z,10.30
2019-03-05T14:17:02.886Z,10.30
2019-03-05T14:19:30.468Z,10.30
2019-03-05T14:21:57.974Z,10.30
2019-03-05T14:24:25.647Z,10.30
2019-03-05T14:26:53.304Z,10.30
2019-03-05T14:29:21.167Z,10.40
2019-03-05T14:31:48.793Z,10.50
2019-03-05T14:34:16.402Z,10.50
2019-03-05T14:36:45.107Z,10.50
2019-03-05T14:39:21.691Z,10.50
2019-03-05T14:41:49.411Z,10.60
2019-03-05T14:44:39.347Z,10.60
2019-03-05T14:47:00.202Z,10.60
2019-03-05T14:49:40.702Z,10.60
2019-03-05T14:52:08.347Z,10.50
2019-03-05T14:54:35.829Z,10.50
2019-03-05T14:57:03.338Z,10.60
2019-03-05T14:59:31.066Z,10.60
2019-03-05T15:01:58.642Z,10.70
2019-03-05T15:04:26.088Z,10.90
2019-03-05T15:06:53.513Z,11.00
2019-03-05T15:09:21.099Z,11.10
2019-03-05T15:11:49.696Z,11.20
2019-03-05T15:14:17.137Z,11.10
2019-03-05T15:16:44.634Z,10.90
2019-03-05T15:19:20.892Z,10.80
2019-03-05T15:21:41.316Z,10.70
2019-03-05T15:24:08.902Z,10.60
2019-03-05T15:26:36.454Z,10.60
2019-03-05T15:29:03.990Z,10.70
2019-03-05T15:31:31.539Z,10.80
2019-03-05T15:33:59.085Z,10.90
2019-03-05T15:36:26.661Z,11.00
2019-03-05T15:38:54.184Z,11.00
2019-03-05T15:41:21.678Z,11.00
2019-03-05T15:43:49.959Z,11.00
2019-03-05T15:46:19.153Z,11.00
2019-03-05T15:48:46.662Z,11.10
2019-03-05T15:51:14.043Z,11.30
2019-03-05T15:53:41.573Z,11.40
2019-03-05T15:56:09.006Z,11.40
2019-03-05T15:58:38.697Z,11.40
2019-03-05T16:01:06.124Z,11.40
2019-03-05T16:03:33.594Z,11.50
2019-03-05T16:06:01.181Z,11.60
2019-03-05T16:08:32.384Z,11.60
2019-03-05T16:10:59.547Z,11.50
2019-03-05T16:13:28.755Z,11.50
2019-03-05T16:15:57.502Z,11.40
2019-03-05T16:18:25.108Z,11.40
2019-03-05T16:20:52.652Z,11.40
2019-03-05T16:23:20.104Z,11.40
2019-03-05T16:25:50.339Z,11.30
2019-03-05T16:28:18.683Z,11.20
2019-03-05T16:30:58.259Z,10.90
2019-03-05T16:33:32.400Z,10.80
2019-03-05T16:36:25.438Z,10.80
2019-03-05T16:39:07.237Z,10.70
2019-03-05T16:41:59.456Z,10.60
2019-03-05T16:44:43.619Z,10.50
2019-03-05T16:47:40.233Z,10.50
2019-03-05T16:50:18.872Z,10.30
2019-03-05T16:53:04.928Z,10.10
2019-03-05T16:55:46.335Z,10.20
2019-03-05T16:58:32.503Z,10.20
2019-03-05T17:01:16.081Z,10.30
2019-03-05T17:03:56.235Z,10.20
2019-03-05T17:06:42.367Z,10.10
2019-03-05T17:09:20.162Z,10.20
2019-03-05T17:57:44.352Z,7.70
2019-03-05T18:00:16.820Z,7.70
2019-03-05T18:02:45.624Z,7.90
2019-03-05T18:05:13.151Z,8.00
2019-03-05T18:07:40.543Z,8.10
2019-03-05T18:10:08.527Z,8.30
2019-03-05T18:12:36.278Z,8.40
2019-03-05T18:15:04.582Z,8.50
2019-03-05T18:17:34.216Z,8.70
2019-03-05T18:20:03.650Z,8.80
2019-03-05T18:22:32.919Z,8.80
2019-03-05T18:25:00.602Z,8.90
2019-03-05T18:27:28.275Z,9.00
2019-03-05T18:29:56.022Z,9.20
2019-03-05T18:32:23.506Z,9.30
2019-03-05T18:34:51.061Z,9.30
2019-03-05T18:37:18.779Z,9.40
2019-03-05T18:39:46.395Z,9.50
2019-03-05T18:42:14.035Z,9.40
2019-03-05T18:44:45.919Z,9.40
2019-03-05T18:47:13.793Z,9.50
2019-03-05T18:49:41.609Z,9.50
2019-03-05T18:52:09.282Z,9.40
2019-03-05T18:54:37.122Z,9.50
2019-03-05T18:57:06.007Z,9.60
2019-03-05T18:59:33.803Z,9.60
2019-03-05T19:02:01.462Z,9.60
2019-03-05T19:04:29.251Z,9.60
2019-03-05T19:06:56.865Z,9.70
2019-03-05T19:09:24.518Z,9.70
2019-03-05T19:11:52.186Z,9.80
2019-03-05T19:14:19.918Z,9.90
2019-03-05T19:16:47.702Z,10.00
2019-03-05T19:19:15.378Z,10.00
2019-03-05T19:21:44.397Z,10.00
2019-03-05T19:24:12.223Z,10.00
2019-03-05T19:26:40.045Z,9.90
2019-03-05T19:29:07.805Z,9.80
2019-03-05T19:31:35.487Z,9.60
2019-03-05T19:34:03.673Z,9.50
2019-03-05T19:36:31.356Z,9.50
2019-03-05T19:39:00.032Z,9.40
2019-03-05T19:41:29.627Z,9.30
2019-03-05T19:43:59.667Z,9.20
2019-03-05T19:46:28.799Z,9.00
2019-03-05T19:48:56.671Z,8.90
2019-03-05T19:51:28.698Z,8.80
2019-03-05T19:53:56.442Z,8.70
2019-03-05T19:56:24.100Z,8.70
2019-03-05T19:58:51.700Z,8.70
2019-03-05T20:01:25.724Z,8.80
2019-03-05T20:03:53.423Z,8.90
2019-03-05T20:06:21.059Z,8.90
2019-03-05T20:08:48.678Z,9.00
2019-03-05T20:11:16.392Z,9.00
2019-03-05T20:13:45.854Z,9.10
2019-03-05T20:16:15.769Z,9.10
2019-03-05T20:18:44.635Z,9.10
2019-03-05T20:21:12.311Z,9.00
2019-03-05T20:23:40.014Z,9.00
2019-03-05T20:26:07.633Z,9.00
2019-03-05T20:28:35.974Z,9.10
2019-03-05T20:31:03.989Z,9.10
2019-03-05T20:33:32.048Z,9.10
2019-03-05T20:36:01.446Z,9.20
2019-03-05T20:38:29.298Z,9.20
2019-03-05T20:40:57.025Z,9.20
2019-03-05T20:43:24.808Z,9.10
2019-03-05T20:45:55.077Z,9.10
2019-03-05T20:48:22.692Z,9.00
2019-03-05T20:50:50.511Z,9.00
2019-03-05T20:53:18.578Z,9.00
2019-03-05T20:55:46.470Z,9.00
2019-03-05T20:58:14.216Z,9.00
2019-03-05T21:00:42.200Z,8.90
2019-03-05T21:03:10.069Z,8.90
2019-03-05T21:05:39.520Z,8.80
2019-03-05T21:08:08.760Z,8.80
2019-03-05T21:10:36.558Z,8.60
2019-03-05T21:13:04.623Z,8.50
2019-03-05T21:15:32.450Z,8.40
2019-03-05T21:18:02.243Z,8.30
2019-03-05T21:20:29.930Z,8.40
2019-03-05T21:22:57.511Z,8.40
2019-03-05T21:25:25.120Z,8.40
2019-03-05T21:27:52.824Z,8.40
2019-03-05T21:30:20.844Z,8.40
2019-03-05T21:32:48.554Z,8.30
2019-03-05T21:35:16.322Z,8.30
2019-03-05T21:37:43.986Z,8.30
2019-03-05T21:40:17.309Z,8.40
2019-03-05T21:42:45.369Z,8.40
2019-03-05T21:45:15.890Z,8.50
2019-03-05T21:47:43.645Z,8.50
2019-03-05T21:50:13.374Z,8.40
2019-03-05T21:52:41.027Z,8.50
2019-03-05T21:55:08.754Z,8.50
2019-03-05T21:57:36.335Z,8.60
2019-03-05T22:00:06.692Z,8.60
2019-03-05T22:02:34.403Z,8.50
2019-03-05T22:05:01.966Z,8.40
2019-03-05T22:07:29.771Z,8.30
2019-03-05T22:09:57.525Z,8.30
2019-03-05T22:12:25.206Z,8.20
2019-03-05T22:14:54.143Z,8.20
2019-03-05T22:17:22.081Z,8.20
2019-03-05T22:19:51.011Z,8.10
2019-03-05T22:22:18.711Z,7.90
2019-03-05T22:24:46.406Z,7.90
2019-03-05T22:27:15.103Z,8.00
2019-03-05T22:29:43.473Z,8.00
2019-03-05T22:32:11.077Z,8.10
2019-03-05T22:34:39.863Z,8.10
2019-03-05T22:37:07.517Z,8.20
2019-03-05T22:39:35.084Z,8.30
2019-03-05T22:42:02.671Z,8.20
2019-03-05T22:44:30.201Z,7.90
2019-03-05T22:46:57.805Z,7.80
2019-03-05T22:49:25.341Z,7.60
2019-03-05T22:51:54.052Z,7.60
2019-03-05T22:54:21.588Z,7.50
2019-03-05T22:56:49.331Z,7.50
2019-03-05T22:59:17.013Z,7.60
2019-03-05T23:01:44.600Z,7.50
2019-03-05T23:04:15.992Z,7.50
2019-03-05T23:06:43.541Z,7.60
2019-03-05T23:09:22.443Z,7.80
2019-03-05T23:11:51.107Z,7.90
2019-03-05T23:14:20.390Z,8.00
2019-03-05T23:16:48.209Z,8.00
2019-03-05T23:19:15.805Z,8.00
2019-03-05T23:21:43.667Z,8.00
2019-03-05T23:24:12.218Z,8.00
2019-03-05T23:26:39.928Z,8.10
2019-03-05T23:29:08.817Z,8.20
2019-03-05T23:31:39.912Z,8.30
2019-03-05T23:34:07.506Z,8.40
2019-03-05T23:36:35.218Z,8.40
2019-03-05T23:39:04.040Z,8.40
2019-03-05T23:41:33.454Z,8.50
2019-03-05T23:44:01.150Z,8.50
2019-03-05T23:46:28.817Z,8.40
2019-03-05T23:48:56.398Z,8.40
2019-03-05T23:51:23.968Z,8.40
2019-03-05T23:53:51.578Z,8.40
2019-03-05T23:56:19.083Z,8.30
2019-03-05T23:58:46.669Z,8.10
